Texas Voyager — WLIY — position and weather

sailwx.info

Track history (hours):
 
Tides and Currents Weather Stations Pressure Air Temp Water Temp Dewpoint Dewpoint Depression Visibility Wind Speed Wind Dir Waves Ship Positions

Texas Voyager

Owner: Chevron USA Inc., Washington, DC. More information available from US FCC via Universal Licensing System and Coast Guard Vessel Documentation Center.

Last reported at 2017-Nov-16 08:10 UTC. Time now 2017-Nov-22 01:52 UTC.
Position N 27°37' W 082°39'.

Length 182 m; draft 9 m.

Type: Tanker. MMSI: 369142000.

Date/timePositionNaut miles runAvg speedWind from/ knotsBaromVisibWave heightAir tempDewpointWater temp
2017-Nov-16 08:10N 27°37' W 082°39'413.6
2017-Nov-16 07:51N 27°40' W 082°36'513.2
2017-Nov-16 07:30N 27°43' W 082°32'4 8.2
2017-Nov-16 07:00N 27°47' W 082°33'4 6.9
2017-Nov-16 06:30N 27°51' W 082°34'1 2.0
2017-Nov-16 06:00N 27°52' W 082°33'0 0.0
2017-Nov-16 05:30N 27°52' W 082°33'0 0.0
2017-Nov-16 04:59N 27°52' W 082°33'0 0.0
2017-Nov-16 04:29N 27°52' W 082°33'0 0.0
2017-Nov-16 03:59N 27°52' W 082°33'0 0.0
2017-Nov-16 03:29N 27°52' W 082°33'0 0.0
2017-Nov-16 02:59N 27°52' W 082°33'0 0.0
2017-Nov-16 02:29N 27°52' W 082°33'0 0.0
2017-Nov-16 01:35N 27°52' W 082°33'0 0.0
2017-Nov-16 01:29N 27°52' W 082°33'0 0.0
2017-Nov-16 00:59N 27°52' W 082°33'0 0.0
2017-Nov-16 00:29N 27°52' W 082°33'0 0.0
2017-Nov-15 23:47N 27°52' W 082°33'0 0.0
2017-Nov-15 23:29N 27°52' W 082°33'0 0.0
2017-Nov-15 22:59N 27°52' W 082°33'0 0.0
2017-Nov-15 22:29N 27°52' W 082°33'0 0.0
2017-Nov-15 21:59N 27°52' W 082°33'0 0.0
2017-Nov-15 21:29N 27°52' W 082°33'0 0.0
2017-Nov-15 20:47N 27°52' W 082°33'0 0.0
2017-Nov-15 20:29N 27°52' W 082°33'0 0.0
2017-Nov-15 19:56N 27°52' W 082°33'0 0.0
2017-Nov-15 19:29N 27°52' W 082°33'0 0.0
2017-Nov-15 18:59N 27°52' W 082°33'0 0.0
2017-Nov-15 18:29N 27°52' W 082°33'0 0.0
2017-Nov-15 17:41N 27°52' W 082°33'0 0.0
2017-Nov-15 17:29N 27°52' W 082°33'0 0.0
2017-Nov-15 16:59N 27°52' W 082°33'0 0.0
2017-Nov-15 16:29N 27°52' W 082°33'0 0.0
2017-Nov-15 15:59N 27°52' W 082°33'0 0.0
2017-Nov-15 15:29N 27°52' W 082°33'0 0.0
2017-Nov-15 14:59N 27°52' W 082°33'0 0.0
2017-Nov-15 14:29N 27°52' W 082°33'0 0.0
2017-Nov-15 13:54N 27°52' W 082°33'0 0.0
2017-Nov-15 13:30N 27°52' W 082°33'0 0.9
2017-Nov-15 13:00N 27°51' W 082°33'3 6.3
2017-Nov-15 12:30N 27°48' W 082°34'4 8.9
2017-Nov-15 12:00N 27°48' W 082°29'510.3
2017-Nov-15 11:30N 27°52' W 082°27'3 5.9
2017-Nov-15 11:00N 27°55' W 082°27'0 0.2
2017-Nov-15 10:30N 27°55' W 082°27'0 0.0
2017-Nov-15 10:00N 27°55' W 082°27'0 0.0
2017-Nov-15 09:27N 27°55' W 082°27'0 0.0
2017-Nov-15 09:00N 27°55' W 082°27'0 0.0
2017-Nov-15 08:27N 27°55' W 082°27'0 0.0
2017-Nov-15 07:57N 27°55' W 082°27'0 0.0
2017-Nov-15 07:30N 27°55' W 082°27'0 0.0
2017-Nov-15 07:00N 27°55' W 082°27'0 0.0
2017-Nov-15 06:27N 27°55' W 082°27'0 0.0
2017-Nov-15 06:00N 27°55' W 082°27'0 0.0
2017-Nov-15 05:27N 27°55' W 082°27'0 0.0
2017-Nov-15 05:00N 27°55' W 082°27'0 0.0
2017-Nov-15 04:30N 27°55' W 082°27'0 0.0
2017-Nov-15 04:00N 27°55' W 082°27'0 0.0
2017-Nov-15 03:27N 27°55' W 082°27'0 0.0
2017-Nov-15 02:57N 27°55' W 082°27'0 0.0
2017-Nov-15 02:30N 27°55' W 082°27'0 0.0
2017-Nov-15 02:00N 27°55' W 082°27'0 0.0
2017-Nov-15 01:30N 27°55' W 082°27'0 0.0
2017-Nov-15 01:00N 27°55' W 082°27'0 0.0
2017-Nov-15 00:30N 27°55' W 082°27'0 0.0
2017-Nov-15 00:00N 27°55' W 082°27'0 0.0
2017-Nov-14 23:27N 27°55' W 082°27'0 0.0
2017-Nov-14 23:00N 27°55' W 082°27'0 0.0
2017-Nov-14 22:27N 27°55' W 082°27'0 0.0
2017-Nov-14 22:00N 27°55' W 082°27'0 0.0
2017-Nov-14 21:30N 27°55' W 082°27'0 0.0
2017-Nov-14 20:57N 27°55' W 082°27'0 0.0
2017-Nov-14 20:30N 27°55' W 082°27'0 0.0
2017-Nov-14 19:57N 27°55' W 082°27'0 0.0
2017-Nov-14 19:30N 27°55' W 082°27'0 0.0
2017-Nov-14 19:00N 27°55' W 082°27'0 0.0
2017-Nov-14 18:30N 27°55' W 082°27'0 0.0
2017-Nov-14 18:00N 27°55' W 082°27'0 0.0
2017-Nov-14 17:30N 27°55' W 082°27'0 0.0
2017-Nov-14 17:00N 27°55' W 082°27'0 0.0
2017-Nov-14 16:30N 27°55' W 082°27'0 0.0
2017-Nov-14 16:00N 27°55' W 082°27'0 0.0
2017-Nov-14 15:30N 27°55' W 082°27'0 0.0
2017-Nov-14 15:00N 27°55' W 082°27'0 0.0
2017-Nov-14 14:30N 27°55' W 082°27'0 0.0
2017-Nov-14 14:00N 27°55' W 082°27'0 0.0
2017-Nov-14 13:30N 27°55' W 082°27'0 0.0
2017-Nov-14 13:00N 27°55' W 082°27'0 0.0
2017-Nov-14 12:30N 27°55' W 082°27'0 0.0
2017-Nov-14 12:00N 27°55' W 082°27'0 0.0
2017-Nov-14 11:30N 27°55' W 082°27'0 0.0
2017-Nov-14 11:00N 27°55' W 082°27'0 0.0
2017-Nov-14 10:30N 27°55' W 082°27'0 0.0
2017-Nov-14 10:00N 27°55' W 082°27'0 0.0
2017-Nov-14 09:30N 27°55' W 082°27'0 0.0
2017-Nov-14 08:57N 27°55' W 082°27'0 0.0
2017-Nov-14 08:27N 27°55' W 082°27'0 0.0
2017-Nov-14 08:00N 27°55' W 082°27'0 0.0
2017-Nov-14 07:30N 27°55' W 082°27'0 0.0
2017-Nov-14 07:00N 27°55' W 082°27'0 0.0
2017-Nov-14 06:30N 27°55' W 082°27'0 0.0
2017-Nov-14 06:00N 27°55' W 082°27'0 0.0
2017-Nov-14 05:30N 27°55' W 082°27'0 0.0
2017-Nov-14 05:00N 27°55' W 082°27'0 0.0
2017-Nov-14 04:30N 27°55' W 082°27'0 0.0
2017-Nov-14 04:00N 27°55' W 082°27'0 0.0
2017-Nov-14 03:30N 27°55' W 082°27'0 0.0
2017-Nov-14 03:00N 27°55' W 082°27'0 0.0
2017-Nov-14 02:30N 27°55' W 082°27'0 0.0
2017-Nov-14 01:57N 27°55' W 082°27'0 0.0
2017-Nov-14 01:30N 27°55' W 082°27'0 0.0
2017-Nov-14 00:57N 27°55' W 082°27'0 0.0
2017-Nov-14 00:30N 27°55' W 082°27'0 0.0
2017-Nov-14 00:00N 27°55' W 082°27'0 0.0
2017-Nov-13 23:30N 27°55' W 082°27'0 0.0
2017-Nov-13 23:00N 27°55' W 082°27'0 0.0
2017-Nov-13 22:30N 27°55' W 082°27'0 0.0
2017-Nov-13 21:59N 27°55' W 082°27'  
2017-Nov-09 11:50N 27°40' W 082°36'513.7
2017-Nov-09 11:30N 27°43' W 082°32'4 8.2
2017-Nov-09 11:00N 27°47' W 082°33'4 8.2
2017-Nov-09 10:30N 27°51' W 082°33'0 0.7
2017-Nov-09 10:00N 27°52' W 082°33'0 0.0
2017-Nov-09 09:28N 27°52' W 082°33'0 0.0
2017-Nov-09 08:58N 27°52' W 082°33'0 0.0
2017-Nov-09 08:28N 27°52' W 082°33'0 0.0
2017-Nov-09 07:58N 27°52' W 082°33'0 0.0
2017-Nov-09 07:22N 27°52' W 082°33'0 0.0
2017-Nov-09 06:58N 27°52' W 082°33'0 0.0
2017-Nov-09 06:28N 27°52' W 082°33'0 0.0
2017-Nov-09 05:58N 27°52' W 082°33'0 0.0
2017-Nov-09 05:28N 27°52' W 082°33'0 0.0
2017-Nov-09 04:58N 27°52' W 082°33'0 0.0
2017-Nov-09 04:28N 27°52' W 082°33'0 0.0
2017-Nov-09 03:58N 27°52' W 082°33'0 0.0
2017-Nov-09 03:28N 27°52' W 082°33'0 0.0
2017-Nov-09 02:58N 27°52' W 082°33'0 0.0
2017-Nov-09 02:22N 27°52' W 082°33'0 0.0
2017-Nov-09 01:58N 27°52' W 082°33'0 0.0
2017-Nov-09 01:28N 27°52' W 082°33'0 0.0
2017-Nov-09 00:58N 27°52' W 082°33'0 0.0
2017-Nov-09 00:28N 27°52' W 082°33'0 0.0
2017-Nov-08 23:58N 27°52' W 082°33'0 0.0
2017-Nov-08 23:28N 27°52' W 082°33'0 0.0
2017-Nov-08 22:58N 27°52' W 082°33'0 0.0
2017-Nov-08 22:28N 27°52' W 082°33'0 0.0
2017-Nov-08 21:58N 27°52' W 082°33'0 0.0
2017-Nov-08 21:28N 27°52' W 082°33'0 0.0
2017-Nov-08 20:58N 27°52' W 082°33'0 0.0
2017-Nov-08 20:28N 27°52' W 082°33'0 0.0
2017-Nov-08 19:58N 27°52' W 082°33'0 0.0
2017-Nov-08 19:28N 27°52' W 082°33'0 0.0
2017-Nov-08 18:58N 27°52' W 082°33'0 0.2
2017-Nov-08 18:30N 27°52' W 082°33'2 3.5
2017-Nov-08 18:00N 27°50' W 082°34'4 7.3
2017-Nov-08 17:30N 27°47' W 082°32'611.3
2017-Nov-08 17:00N 27°51' W 082°27'4 8.4
2017-Nov-08 16:30N 27°55' W 082°27'0 0.4
2017-Nov-08 15:59N 27°55' W 082°27'0 0.0
2017-Nov-08 15:29N 27°55' W 082°27'0 0.0
2017-Nov-08 14:59N 27°55' W 082°27'0 0.0
2017-Nov-08 14:29N 27°55' W 082°27'0 0.0
2017-Nov-08 13:56N 27°55' W 082°27'0 0.0
2017-Nov-08 13:29N 27°55' W 082°27'0 0.0
2017-Nov-08 12:59N 27°55' W 082°27'0 0.0
2017-Nov-08 12:29N 27°55' W 082°27'0 0.0
2017-Nov-08 11:59N 27°55' W 082°27'0 0.0
2017-Nov-08 11:29N 27°55' W 082°27'0 0.0
2017-Nov-08 10:59N 27°55' W 082°27'0 0.0
2017-Nov-08 10:26N 27°55' W 082°27'0 0.0
2017-Nov-08 09:59N 27°55' W 082°27'0 0.0
2017-Nov-08 09:29N 27°55' W 082°27'0 0.0
2017-Nov-08 08:56N 27°55' W 082°27'0 0.0
2017-Nov-08 08:26N 27°55' W 082°27'0 0.0
2017-Nov-08 07:59N 27°55' W 082°27'0 0.0
2017-Nov-08 07:29N 27°55' W 082°27'0 0.0
2017-Nov-08 06:59N 27°55' W 082°27'0 0.0
2017-Nov-08 06:29N 27°55' W 082°27'0 0.0
2017-Nov-08 05:59N 27°55' W 082°27'0 0.0
2017-Nov-08 05:29N 27°55' W 082°27'0 0.0
2017-Nov-08 04:59N 27°55' W 082°27'0 0.0
2017-Nov-08 04:23N 27°55' W 082°27'0 0.0
2017-Nov-08 03:59N 27°55' W 082°27'0 0.0
2017-Nov-08 03:29N 27°55' W 082°27'0 0.0
2017-Nov-08 02:59N 27°55' W 082°27'0 0.0
2017-Nov-08 02:29N 27°55' W 082°27'0 0.0
2017-Nov-08 01:59N 27°55' W 082°27'0 0.0
2017-Nov-08 01:23N 27°55' W 082°27'0 0.0
2017-Nov-08 00:59N 27°55' W 082°27'0 0.0
2017-Nov-08 00:29N 27°55' W 082°27'0 0.0
2017-Nov-07 23:59N 27°55' W 082°27'0 0.0
2017-Nov-07 23:29N 27°55' W 082°27'0 0.0
2017-Nov-07 22:59N 27°55' W 082°27'0 0.0
2017-Nov-07 22:29N 27°55' W 082°27'0 0.0
2017-Nov-07 21:59N 27°55' W 082°27'0 0.0
2017-Nov-07 21:29N 27°55' W 082°27'0 0.0
2017-Nov-07 20:59N 27°55' W 082°27'0 0.0
2017-Nov-07 20:29N 27°55' W 082°27'0 0.0
2017-Nov-07 19:56N 27°55' W 082°27'0 0.0
2017-Nov-07 19:29N 27°55' W 082°27'0 0.0
2017-Nov-07 18:59N 27°55' W 082°27'0 0.0
2017-Nov-07 18:29N 27°55' W 082°27'0 0.0
2017-Nov-07 17:59N 27°55' W 082°27'0 0.0
2017-Nov-07 17:26N 27°55' W 082°27'0 0.0
2017-Nov-07 16:59N 27°55' W 082°27'0 0.0
2017-Nov-07 16:29N 27°55' W 082°27'0 0.0
2017-Nov-07 15:59N 27°55' W 082°27'0 0.0
2017-Nov-07 15:23N 27°55' W 082°27'0 0.0
2017-Nov-07 14:56N 27°55' W 082°27'0 0.0
2017-Nov-07 14:29N 27°55' W 082°27'0 0.0
2017-Nov-07 13:59N 27°55' W 082°27'0 0.0
2017-Nov-07 13:29N 27°55' W 082°27'0 0.0
2017-Nov-07 12:59N 27°55' W 082°27'0 0.0
2017-Nov-07 12:29N 27°55' W 082°27'0 0.0
2017-Nov-07 11:59N 27°55' W 082°27'0 0.0
2017-Nov-07 11:23N 27°55' W 082°27'0 0.0
2017-Nov-07 10:59N 27°55' W 082°27'0 0.0
2017-Nov-07 10:29N 27°55' W 082°27'0 0.0
2017-Nov-07 09:59N 27°55' W 082°27'0 0.0
2017-Nov-07 09:29N 27°55' W 082°27'0 0.0
2017-Nov-07 08:59N 27°55' W 082°27'0 0.0
2017-Nov-07 08:30N 27°55' W 082°27'1 2.3
2017-Nov-07 08:00N 27°54' W 082°26'3 6.5
2017-Nov-07 07:30N 27°51' W 082°27'4 7.2
2017-Nov-07 07:00N 27°48' W 082°29'5 9.7
2017-Nov-07 06:30N 27°44' W 082°32'611.4
2017-Nov-07 05:57N 27°39' W 082°37'612.8
2017-Nov-07 05:30N 27°36' W 082°43'713.5
2017-Nov-07 04:58N 27°36' W 082°51'611.7
2017-Nov-07 04:29N 27°36' W 082°57'510.4
2017-Nov-07 04:01N 27°37' W 083°02'  
Track history (hours):
 
Tides and Currents Weather Stations Pressure Air Temp Water Temp Dewpoint Dewpoint Depression Visibility Wind Speed Wind Dir Waves Ship Positions

Texas Voyager

Owner: Chevron USA Inc., Washington, DC. More information available from US FCC via Universal Licensing System and Coast Guard Vessel Documentation Center.

Last reported at 2017-Nov-16 08:10 UTC. Time now 2017-Nov-22 01:52 UTC.
Position N 27°37' W 082°39'.

Length 182 m; draft 9 m.

Type: Tanker. MMSI: 369142000.

Date/timePositionNaut miles runAvg speedWind from/ knotsBaromVisibWave heightAir tempDewpointWater temp
2017-Nov-16 08:10N 27°37' W 082°39'413.6
2017-Nov-16 07:51N 27°40' W 082°36'513.2
2017-Nov-16 07:30N 27°43' W 082°32'4 8.2
2017-Nov-16 07:00N 27°47' W 082°33'4 6.9
2017-Nov-16 06:30N 27°51' W 082°34'1 2.0
2017-Nov-16 06:00N 27°52' W 082°33'0 0.0
2017-Nov-16 05:30N 27°52' W 082°33'0 0.0
2017-Nov-16 04:59N 27°52' W 082°33'0 0.0
2017-Nov-16 04:29N 27°52' W 082°33'0 0.0
2017-Nov-16 03:59N 27°52' W 082°33'0 0.0
2017-Nov-16 03:29N 27°52' W 082°33'0 0.0
2017-Nov-16 02:59N 27°52' W 082°33'0 0.0
2017-Nov-16 02:29N 27°52' W 082°33'0 0.0
2017-Nov-16 01:35N 27°52' W 082°33'0 0.0
2017-Nov-16 01:29N 27°52' W 082°33'0 0.0
2017-Nov-16 00:59N 27°52' W 082°33'0 0.0
2017-Nov-16 00:29N 27°52' W 082°33'0 0.0
2017-Nov-15 23:47N 27°52' W 082°33'0 0.0
2017-Nov-15 23:29N 27°52' W 082°33'0 0.0
2017-Nov-15 22:59N 27°52' W 082°33'0 0.0
2017-Nov-15 22:29N 27°52' W 082°33'0 0.0
2017-Nov-15 21:59N 27°52' W 082°33'0 0.0
2017-Nov-15 21:29N 27°52' W 082°33'0 0.0
2017-Nov-15 20:47N 27°52' W 082°33'0 0.0
2017-Nov-15 20:29N 27°52' W 082°33'0 0.0
2017-Nov-15 19:56N 27°52' W 082°33'0 0.0
2017-Nov-15 19:29N 27°52' W 082°33'0 0.0
2017-Nov-15 18:59N 27°52' W 082°33'0 0.0
2017-Nov-15 18:29N 27°52' W 082°33'0 0.0
2017-Nov-15 17:41N 27°52' W 082°33'0 0.0
2017-Nov-15 17:29N 27°52' W 082°33'0 0.0
2017-Nov-15 16:59N 27°52' W 082°33'0 0.0
2017-Nov-15 16:29N 27°52' W 082°33'0 0.0
2017-Nov-15 15:59N 27°52' W 082°33'0 0.0
2017-Nov-15 15:29N 27°52' W 082°33'0 0.0
2017-Nov-15 14:59N 27°52' W 082°33'0 0.0
2017-Nov-15 14:29N 27°52' W 082°33'0 0.0
2017-Nov-15 13:54N 27°52' W 082°33'0 0.0
2017-Nov-15 13:30N 27°52' W 082°33'0 0.9
2017-Nov-15 13:00N 27°51' W 082°33'3 6.3
2017-Nov-15 12:30N 27°48' W 082°34'4 8.9
2017-Nov-15 12:00N 27°48' W 082°29'510.3
2017-Nov-15 11:30N 27°52' W 082°27'3 5.9
2017-Nov-15 11:00N 27°55' W 082°27'0 0.2
2017-Nov-15 10:30N 27°55' W 082°27'0 0.0
2017-Nov-15 10:00N 27°55' W 082°27'0 0.0
2017-Nov-15 09:27N 27°55' W 082°27'0 0.0
2017-Nov-15 09:00N 27°55' W 082°27'0 0.0
2017-Nov-15 08:27N 27°55' W 082°27'0 0.0
2017-Nov-15 07:57N 27°55' W 082°27'0 0.0
2017-Nov-15 07:30N 27°55' W 082°27'0 0.0
2017-Nov-15 07:00N 27°55' W 082°27'0 0.0
2017-Nov-15 06:27N 27°55' W 082°27'0 0.0
2017-Nov-15 06:00N 27°55' W 082°27'0 0.0
2017-Nov-15 05:27N 27°55' W 082°27'0 0.0
2017-Nov-15 05:00N 27°55' W 082°27'0 0.0
2017-Nov-15 04:30N 27°55' W 082°27'0 0.0
2017-Nov-15 04:00N 27°55' W 082°27'0 0.0
2017-Nov-15 03:27N 27°55' W 082°27'0 0.0
2017-Nov-15 02:57N 27°55' W 082°27'0 0.0
2017-Nov-15 02:30N 27°55' W 082°27'0 0.0
2017-Nov-15 02:00N 27°55' W 082°27'0 0.0
2017-Nov-15 01:30N 27°55' W 082°27'0 0.0
2017-Nov-15 01:00N 27°55' W 082°27'0 0.0
2017-Nov-15 00:30N 27°55' W 082°27'0 0.0
2017-Nov-15 00:00N 27°55' W 082°27'0 0.0
2017-Nov-14 23:27N 27°55' W 082°27'0 0.0
2017-Nov-14 23:00N 27°55' W 082°27'0 0.0
2017-Nov-14 22:27N 27°55' W 082°27'0 0.0
2017-Nov-14 22:00N 27°55' W 082°27'0 0.0
2017-Nov-14 21:30N 27°55' W 082°27'0 0.0
2017-Nov-14 20:57N 27°55' W 082°27'0 0.0
2017-Nov-14 20:30N 27°55' W 082°27'0 0.0
2017-Nov-14 19:57N 27°55' W 082°27'0 0.0
2017-Nov-14 19:30N 27°55' W 082°27'0 0.0
2017-Nov-14 19:00N 27°55' W 082°27'0 0.0
2017-Nov-14 18:30N 27°55' W 082°27'0 0.0
2017-Nov-14 18:00N 27°55' W 082°27'0 0.0
2017-Nov-14 17:30N 27°55' W 082°27'0 0.0
2017-Nov-14 17:00N 27°55' W 082°27'0 0.0
2017-Nov-14 16:30N 27°55' W 082°27'0 0.0
2017-Nov-14 16:00N 27°55' W 082°27'0 0.0
2017-Nov-14 15:30N 27°55' W 082°27'0 0.0
2017-Nov-14 15:00N 27°55' W 082°27'0 0.0
2017-Nov-14 14:30N 27°55' W 082°27'0 0.0
2017-Nov-14 14:00N 27°55' W 082°27'0 0.0
2017-Nov-14 13:30N 27°55' W 082°27'0 0.0
2017-Nov-14 13:00N 27°55' W 082°27'0 0.0
2017-Nov-14 12:30N 27°55' W 082°27'0 0.0
2017-Nov-14 12:00N 27°55' W 082°27'0 0.0
2017-Nov-14 11:30N 27°55' W 082°27'0 0.0
2017-Nov-14 11:00N 27°55' W 082°27'0 0.0
2017-Nov-14 10:30N 27°55' W 082°27'0 0.0
2017-Nov-14 10:00N 27°55' W 082°27'0 0.0
2017-Nov-14 09:30N 27°55' W 082°27'0 0.0
2017-Nov-14 08:57N 27°55' W 082°27'0 0.0
2017-Nov-14 08:27N 27°55' W 082°27'0 0.0
2017-Nov-14 08:00N 27°55' W 082°27'0 0.0
2017-Nov-14 07:30N 27°55' W 082°27'0 0.0
2017-Nov-14 07:00N 27°55' W 082°27'0 0.0
2017-Nov-14 06:30N 27°55' W 082°27'0 0.0
2017-Nov-14 06:00N 27°55' W 082°27'0 0.0
2017-Nov-14 05:30N 27°55' W 082°27'0 0.0
2017-Nov-14 05:00N 27°55' W 082°27'0 0.0
2017-Nov-14 04:30N 27°55' W 082°27'0 0.0
2017-Nov-14 04:00N 27°55' W 082°27'0 0.0
2017-Nov-14 03:30N 27°55' W 082°27'0 0.0
2017-Nov-14 03:00N 27°55' W 082°27'0 0.0
2017-Nov-14 02:30N 27°55' W 082°27'0 0.0
2017-Nov-14 01:57N 27°55' W 082°27'0 0.0
2017-Nov-14 01:30N 27°55' W 082°27'0 0.0
2017-Nov-14 00:57N 27°55' W 082°27'0 0.0
2017-Nov-14 00:30N 27°55' W 082°27'0 0.0
2017-Nov-14 00:00N 27°55' W 082°27'0 0.0
2017-Nov-13 23:30N 27°55' W 082°27'0 0.0
2017-Nov-13 23:00N 27°55' W 082°27'0 0.0
2017-Nov-13 22:30N 27°55' W 082°27'0 0.0
2017-Nov-13 21:59N 27°55' W 082°27'  
2017-Nov-09 11:50N 27°40' W 082°36'513.7
2017-Nov-09 11:30N 27°43' W 082°32'4 8.2
2017-Nov-09 11:00N 27°47' W 082°33'4 8.2
2017-Nov-09 10:30N 27°51' W 082°33'0 0.7
2017-Nov-09 10:00N 27°52' W 082°33'0 0.0
2017-Nov-09 09:28N 27°52' W 082°33'0 0.0
2017-Nov-09 08:58N 27°52' W 082°33'0 0.0
2017-Nov-09 08:28N 27°52' W 082°33'0 0.0
2017-Nov-09 07:58N 27°52' W 082°33'0 0.0
2017-Nov-09 07:22N 27°52' W 082°33'0 0.0
2017-Nov-09 06:58N 27°52' W 082°33'0 0.0
2017-Nov-09 06:28N 27°52' W 082°33'0 0.0
2017-Nov-09 05:58N 27°52' W 082°33'0 0.0
2017-Nov-09 05:28N 27°52' W 082°33'0 0.0
2017-Nov-09 04:58N 27°52' W 082°33'0 0.0
2017-Nov-09 04:28N 27°52' W 082°33'0 0.0
2017-Nov-09 03:58N 27°52' W 082°33'0 0.0
2017-Nov-09 03:28N 27°52' W 082°33'0 0.0
2017-Nov-09 02:58N 27°52' W 082°33'0 0.0
2017-Nov-09 02:22N 27°52' W 082°33'0 0.0
2017-Nov-09 01:58N 27°52' W 082°33'0 0.0
2017-Nov-09 01:28N 27°52' W 082°33'0 0.0
2017-Nov-09 00:58N 27°52' W 082°33'0 0.0
2017-Nov-09 00:28N 27°52' W 082°33'0 0.0
2017-Nov-08 23:58N 27°52' W 082°33'0 0.0
2017-Nov-08 23:28N 27°52' W 082°33'0 0.0
2017-Nov-08 22:58N 27°52' W 082°33'0 0.0
2017-Nov-08 22:28N 27°52' W 082°33'0 0.0
2017-Nov-08 21:58N 27°52' W 082°33'0 0.0
2017-Nov-08 21:28N 27°52' W 082°33'0 0.0
2017-Nov-08 20:58N 27°52' W 082°33'0 0.0
2017-Nov-08 20:28N 27°52' W 082°33'0 0.0
2017-Nov-08 19:58N 27°52' W 082°33'0 0.0
2017-Nov-08 19:28N 27°52' W 082°33'0 0.0
2017-Nov-08 18:58N 27°52' W 082°33'0 0.2
2017-Nov-08 18:30N 27°52' W 082°33'2 3.5
2017-Nov-08 18:00N 27°50' W 082°34'4 7.3
2017-Nov-08 17:30N 27°47' W 082°32'611.3
2017-Nov-08 17:00N 27°51' W 082°27'4 8.4
2017-Nov-08 16:30N 27°55' W 082°27'0 0.4
2017-Nov-08 15:59N 27°55' W 082°27'0 0.0
2017-Nov-08 15:29N 27°55' W 082°27'0 0.0
2017-Nov-08 14:59N 27°55' W 082°27'0 0.0
2017-Nov-08 14:29N 27°55' W 082°27'0 0.0
2017-Nov-08 13:56N 27°55' W 082°27'0 0.0
2017-Nov-08 13:29N 27°55' W 082°27'0 0.0
2017-Nov-08 12:59N 27°55' W 082°27'0 0.0
2017-Nov-08 12:29N 27°55' W 082°27'0 0.0
2017-Nov-08 11:59N 27°55' W 082°27'0 0.0
2017-Nov-08 11:29N 27°55' W 082°27'0 0.0
2017-Nov-08 10:59N 27°55' W 082°27'0 0.0
2017-Nov-08 10:26N 27°55' W 082°27'0 0.0
2017-Nov-08 09:59N 27°55' W 082°27'0 0.0
2017-Nov-08 09:29N 27°55' W 082°27'0 0.0
2017-Nov-08 08:56N 27°55' W 082°27'0 0.0
2017-Nov-08 08:26N 27°55' W 082°27'0 0.0
2017-Nov-08 07:59N 27°55' W 082°27'0 0.0
2017-Nov-08 07:29N 27°55' W 082°27'0 0.0
2017-Nov-08 06:59N 27°55' W 082°27'0 0.0
2017-Nov-08 06:29N 27°55' W 082°27'0 0.0
2017-Nov-08 05:59N 27°55' W 082°27'0 0.0
2017-Nov-08 05:29N 27°55' W 082°27'0 0.0
2017-Nov-08 04:59N 27°55' W 082°27'0 0.0
2017-Nov-08 04:23N 27°55' W 082°27'0 0.0
2017-Nov-08 03:59N 27°55' W 082°27'0 0.0
2017-Nov-08 03:29N 27°55' W 082°27'0 0.0
2017-Nov-08 02:59N 27°55' W 082°27'0 0.0
2017-Nov-08 02:29N 27°55' W 082°27'0 0.0
2017-Nov-08 01:59N 27°55' W 082°27'0 0.0
2017-Nov-08 01:23N 27°55' W 082°27'0 0.0
2017-Nov-08 00:59N 27°55' W 082°27'0 0.0
2017-Nov-08 00:29N 27°55' W 082°27'0 0.0
2017-Nov-07 23:59N 27°55' W 082°27'0 0.0
2017-Nov-07 23:29N 27°55' W 082°27'0 0.0
2017-Nov-07 22:59N 27°55' W 082°27'0 0.0
2017-Nov-07 22:29N 27°55' W 082°27'0 0.0
2017-Nov-07 21:59N 27°55' W 082°27'0 0.0
2017-Nov-07 21:29N 27°55' W 082°27'0 0.0
2017-Nov-07 20:59N 27°55' W 082°27'0 0.0
2017-Nov-07 20:29N 27°55' W 082°27'0 0.0
2017-Nov-07 19:56N 27°55' W 082°27'0 0.0
2017-Nov-07 19:29N 27°55' W 082°27'0 0.0
2017-Nov-07 18:59N 27°55' W 082°27'0 0.0
2017-Nov-07 18:29N 27°55' W 082°27'0 0.0
2017-Nov-07 17:59N 27°55' W 082°27'0 0.0
2017-Nov-07 17:26N 27°55' W 082°27'0 0.0
2017-Nov-07 16:59N 27°55' W 082°27'0 0.0
2017-Nov-07 16:29N 27°55' W 082°27'0 0.0
2017-Nov-07 15:59N 27°55' W 082°27'0 0.0
2017-Nov-07 15:23N 27°55' W 082°27'0 0.0
2017-Nov-07 14:56N 27°55' W 082°27'0 0.0
2017-Nov-07 14:29N 27°55' W 082°27'0 0.0
2017-Nov-07 13:59N 27°55' W 082°27'0 0.0
2017-Nov-07 13:29N 27°55' W 082°27'0 0.0
2017-Nov-07 12:59N 27°55' W 082°27'0 0.0
2017-Nov-07 12:29N 27°55' W 082°27'0 0.0
2017-Nov-07 11:59N 27°55' W 082°27'0 0.0
2017-Nov-07 11:23N 27°55' W 082°27'0 0.0
2017-Nov-07 10:59N 27°55' W 082°27'0 0.0
2017-Nov-07 10:29N 27°55' W 082°27'0 0.0
2017-Nov-07 09:59N 27°55' W 082°27'0 0.0
2017-Nov-07 09:29N 27°55' W 082°27'0 0.0
2017-Nov-07 08:59N 27°55' W 082°27'0 0.0
2017-Nov-07 08:30N 27°55' W 082°27'1 2.3
2017-Nov-07 08:00N 27°54' W 082°26'3 6.5
2017-Nov-07 07:30N 27°51' W 082°27'4 7.2
2017-Nov-07 07:00N 27°48' W 082°29'5 9.7
2017-Nov-07 06:30N 27°44' W 082°32'611.4
2017-Nov-07 05:57N 27°39' W 082°37'612.8
2017-Nov-07 05:30N 27°36' W 082°43'713.5
2017-Nov-07 04:58N 27°36' W 082°51'611.7
2017-Nov-07 04:29N 27°36' W 082°57'510.4
2017-Nov-07 04:01N 27°37' W 083°02'  

Dump ship's entire track history